This is the latest recevied weather packets stored in our database for station/object W4GAP. If no packets are shown the sender has not sent any weather packets the latest 1 day(s).
| Time | Temp. | Humidity | Pressure | Rain* | Wind** | Luminosity | Snow |
|---|---|---|---|---|---|---|---|
| 1836274725 | 22.22° C | 84% | 1018.8 hPa | 0 mm | 0 m/s | 0 W/m² | - |
| 1836274578 | 22.22° C | 84% | 1018.8 hPa | 0 mm | 0 m/s | 0 W/m² | - |
| 1836274423 | 22.22° C | 83% | 1018.6 hPa | 0 mm | 0 m/s | 0 W/m² | - |
| 1836274277 | 22.22° C | 84% | 1018.8 hPa | 0 mm | 0 m/s | 0 W/m² | - |
| 1836274122 | 22.22° C | 83% | 1018.7 hPa | 0 mm | 0 m/s | 0 W/m² | - |
| 1778055358 | 20° C | 71% | 1009.7 hPa | 0 mm | 0 m/s | 0 W/m² | - |
| 1778055055 | 20° C | 71% | 1009.7 hPa | 0 mm | 0 m/s | 0 W/m² | - |
| 1778054753 | 20.56° C | 70% | 1010 hPa | 0 mm | 0 m/s | 0 W/m² | - |
| 1778054449 | 20.56° C | 70% | 1010 hPa | 0 mm | 0 m/s | 0 W/m² | - |
| 1778054147 | 20.56° C | 70% | 1010 hPa | 0 mm | 0 m/s | 0 W/m² | - |
| 1778053843 | 20.56° C | 70% | 1010.3 hPa | 0 mm | 0 m/s | 0 W/m² | - |
| 1778053541 | 20.56° C | 70% | 1010.1 hPa | 0 mm | 0.45 m/s, 300° | 0 W/m² | - |
| 1778053238 | 20.56° C | 70% | 1009.9 hPa | 0 mm | 0.45 m/s, 287° | 0 W/m² | - |
| 1778052936 | 20.56° C | 68% | 1010.5 hPa | 0 mm | 0 m/s | 0 W/m² | - |
| 1778052633 | 20.56° C | 68% | 1010 hPa | 0 mm | 0 m/s | 0 W/m² | - |
| 1778052330 | 20.56° C | 67% | 1010.1 hPa | 0 mm | 0 m/s | 0 W/m² | - |
| 1778052028 | 20.56° C | 66% | 1010.3 hPa | 0 mm | 0 m/s | 0 W/m² | - |
| 1778051725 | 20.56° C | 65% | 1010.5 hPa | 0 mm | 0 m/s | 0 W/m² | - |
| 1778051422 | 20.56° C | 65% | 1010.7 hPa | 0 mm | 0 m/s | 0 W/m² | - |
| 1778051120 | 20.56° C | 62% | 1010.6 hPa | 0 mm | 0 m/s | 0 W/m² | - |
| 1778050817 | 21.11° C | 61% | 1010.6 hPa | 0 mm | 0 m/s | 0 W/m² | - |
| 1778050515 | 21.11° C | 61% | 1010.6 hPa | 0 mm | 0 m/s | 0 W/m² | - |
| 1778050211 | 21.11° C | 60% | 1010.9 hPa | 0 mm | 0 m/s | 0 W/m² | - |
| 1778049908 | 21.11° C | 59% | 1010.9 hPa | 0 mm | 0 m/s | 0 W/m² | - |
| 1778049603 | 21.11° C | 58% | 1010.7 hPa | 0 mm | 0 m/s | 0 W/m² | - |
* Rain latest hour (hover to see other rain measurements)
** Current wind speed in m/s (hover to see current wind gust speed)